sensor_id;sensor_type;location;lat;lon;timestamp;P1;durP1;ratioP1;P2;durP2;ratioP2
17648;SDS011;8943;51.110;-4.158;2022-07-01T00:01:47;4.60;;;1.77;;
17648;SDS011;8943;51.110;-4.158;2022-07-01T00:04:17;7.27;;;2.30;;
17648;SDS011;8943;51.110;-4.158;2022-07-01T00:06:46;5.87;;;2.10;;
17648;SDS011;8943;51.110;-4.158;2022-07-01T00:09:14;11.37;;;2.63;;
17648;SDS011;8943;51.110;-4.158;2022-07-01T00:11:42;10.57;;;2.40;;
17648;SDS011;8943;51.110;-4.158;2022-07-01T00:14:10;7.87;;;2.13;;
17648;SDS011;8943;51.110;-4.158;2022-07-01T00:16:38;6.30;;;2.20;;
17648;SDS011;8943;51.110;-4.158;2022-07-01T00:19:07;9.87;;;2.50;;
17648;SDS011;8943;51.110;-4.158;2022-07-01T00:21:37;8.37;;;2.50;;
17648;SDS011;8943;51.110;-4.158;2022-07-01T00:24:05;10.77;;;2.30;;
17648;SDS011;8943;51.110;-4.158;2022-07-01T00:26:34;11.63;;;2.97;;
17648;SDS011;8943;51.110;-4.158;2022-07-01T00:29:02;8.00;;;2.67;;
17648;SDS011;8943;51.110;-4.158;2022-07-01T00:31:30;6.27;;;2.03;;
17648;SDS011;8943;51.110;-4.158;2022-07-01T00:33:59;8.67;;;2.33;;
17648;SDS011;8943;51.110;-4.158;2022-07-01T00:36:27;17.30;;;2.80;;
17648;SDS011;8943;51.110;-4.158;2022-07-01T00:38:57;12.67;;;2.53;;
17648;SDS011;8943;51.110;-4.158;2022-07-01T00:41:26;12.43;;;2.20;;
17648;SDS011;8943;51.110;-4.158;2022-07-01T00:43:54;9.50;;;1.80;;
17648;SDS011;8943;51.110;-4.158;2022-07-01T00:46:23;9.77;;;2.30;;
17648;SDS011;8943;51.110;-4.158;2022-07-01T00:48:53;7.80;;;1.93;;
17648;SDS011;8943;51.110;-4.158;2022-07-01T00:51:23;11.43;;;2.10;;
17648;SDS011;8943;51.110;-4.158;2022-07-01T00:53:51;7.93;;;1.90;;
17648;SDS011;8943;51.110;-4.158;2022-07-01T00:56:21;9.37;;;2.53;;
17648;SDS011;8943;51.110;-4.158;2022-07-01T00:58:49;9.17;;;2.10;;
17648;SDS011;8943;51.110;-4.158;2022-07-01T01:01:17;6.90;;;1.90;;
17648;SDS011;8943;51.110;-4.158;2022-07-01T01:03:47;7.83;;;2.00;;
17648;SDS011;8943;51.110;-4.158;2022-07-01T01:06:16;8.73;;;1.97;;
17648;SDS011;8943;51.110;-4.158;2022-07-01T01:08:44;11.90;;;2.23;;
17648;SDS011;8943;51.110;-4.158;2022-07-01T01:11:15;8.27;;;1.97;;
17648;SDS011;8943;51.110;-4.158;2022-07-01T01:13:45;8.87;;;2.00;;
17648;SDS011;8943;51.110;-4.158;2022-07-01T01:16:17;12.97;;;2.23;;
17648;SDS011;8943;51.110;-4.158;2022-07-01T01:18:46;3.27;;;1.30;;
17648;SDS011;8943;51.110;-4.158;2022-07-01T01:21:16;8.27;;;1.57;;
17648;SDS011;8943;51.110;-4.158;2022-07-01T01:23:44;6.53;;;1.50;;
17648;SDS011;8943;51.110;-4.158;2022-07-01T01:26:16;14.00;;;2.30;;
17648;SDS011;8943;51.110;-4.158;2022-07-01T01:28:45;8.77;;;2.07;;
17648;SDS011;8943;51.110;-4.158;2022-07-01T01:31:14;13.23;;;2.37;;
17648;SDS011;8943;51.110;-4.158;2022-07-01T01:33:43;14.63;;;2.07;;
17648;SDS011;8943;51.110;-4.158;2022-07-01T01:36:12;9.03;;;1.83;;
17648;SDS011;8943;51.110;-4.158;2022-07-01T01:38:41;11.70;;;1.70;;
17648;SDS011;8943;51.110;-4.158;2022-07-01T01:41:09;14.33;;;2.53;;
17648;SDS011;8943;51.110;-4.158;2022-07-01T01:43:38;7.57;;;1.73;;
17648;SDS011;8943;51.110;-4.158;2022-07-01T01:46:06;11.47;;;2.50;;
17648;SDS011;8943;51.110;-4.158;2022-07-01T01:48:34;12.23;;;2.07;;
17648;SDS011;8943;51.110;-4.158;2022-07-01T01:51:02;6.47;;;1.63;;
17648;SDS011;8943;51.110;-4.158;2022-07-01T01:53:31;10.23;;;2.17;;
17648;SDS011;8943;51.110;-4.158;2022-07-01T01:56:00;14.07;;;2.30;;
17648;SDS011;8943;51.110;-4.158;2022-07-01T01:58:28;7.13;;;1.70;;
17648;SDS011;8943;51.110;-4.158;2022-07-01T02:00:56;7.73;;;2.13;;
17648;SDS011;8943;51.110;-4.158;2022-07-01T02:03:24;7.80;;;1.47;;
17648;SDS011;8943;51.110;-4.158;2022-07-01T02:05:53;7.13;;;1.23;;
17648;SDS011;8943;51.110;-4.158;2022-07-01T02:08:21;12.30;;;1.60;;
17648;SDS011;8943;51.110;-4.158;2022-07-01T02:10:49;8.00;;;1.50;;
17648;SDS011;8943;51.110;-4.158;2022-07-01T02:13:21;11.47;;;1.80;;
17648;SDS011;8943;51.110;-4.158;2022-07-01T02:15:49;11.93;;;1.70;;
17648;SDS011;8943;51.110;-4.158;2022-07-01T02:18:18;5.63;;;1.17;;
17648;SDS011;8943;51.110;-4.158;2022-07-01T02:20:46;6.43;;;1.60;;
17648;SDS011;8943;51.110;-4.158;2022-07-01T02:23:14;8.70;;;1.60;;
17648;SDS011;8943;51.110;-4.158;2022-07-01T02:25:42;7.10;;;1.60;;
17648;SDS011;8943;51.110;-4.158;2022-07-01T02:28:10;5.63;;;1.40;;
17648;SDS011;8943;51.110;-4.158;2022-07-01T02:30:40;6.17;;;1.37;;
17648;SDS011;8943;51.110;-4.158;2022-07-01T02:33:08;13.63;;;1.93;;
17648;SDS011;8943;51.110;-4.158;2022-07-01T02:35:38;10.93;;;2.20;;
17648;SDS011;8943;51.110;-4.158;2022-07-01T02:38:12;9.77;;;1.90;;
17648;SDS011;8943;51.110;-4.158;2022-07-01T02:40:40;9.50;;;2.33;;
17648;SDS011;8943;51.110;-4.158;2022-07-01T02:43:08;10.33;;;1.83;;
17648;SDS011;8943;51.110;-4.158;2022-07-01T02:45:37;12.93;;;2.27;;
17648;SDS011;8943;51.110;-4.158;2022-07-01T02:48:07;9.57;;;2.00;;
17648;SDS011;8943;51.110;-4.158;2022-07-01T02:50:36;10.50;;;1.67;;
17648;SDS011;8943;51.110;-4.158;2022-07-01T02:53:04;6.03;;;1.10;;
17648;SDS011;8943;51.110;-4.158;2022-07-01T02:55:32;13.07;;;2.33;;
17648;SDS011;8943;51.110;-4.158;2022-07-01T02:58:00;4.67;;;1.27;;
17648;SDS011;8943;51.110;-4.158;2022-07-01T03:00:30;6.57;;;1.60;;
17648;SDS011;8943;51.110;-4.158;2022-07-01T03:02:59;11.10;;;2.00;;
17648;SDS011;8943;51.110;-4.158;2022-07-01T03:05:28;6.57;;;1.87;;
17648;SDS011;8943;51.110;-4.158;2022-07-01T03:07:57;10.77;;;1.80;;
17648;SDS011;8943;51.110;-4.158;2022-07-01T03:10:25;10.23;;;1.47;;
17648;SDS011;8943;51.110;-4.158;2022-07-01T03:12:53;11.63;;;1.37;;
17648;SDS011;8943;51.110;-4.158;2022-07-01T03:15:21;8.30;;;1.80;;
17648;SDS011;8943;51.110;-4.158;2022-07-01T03:17:49;5.67;;;1.30;;
17648;SDS011;8943;51.110;-4.158;2022-07-01T03:20:17;9.33;;;1.73;;
17648;SDS011;8943;51.110;-4.158;2022-07-01T03:22:47;3.67;;;1.37;;
17648;SDS011;8943;51.110;-4.158;2022-07-01T03:25:16;8.30;;;1.30;;
17648;SDS011;8943;51.110;-4.158;2022-07-01T03:27:44;9.17;;;1.87;;
17648;SDS011;8943;51.110;-4.158;2022-07-01T03:30:14;5.40;;;2.07;;
17648;SDS011;8943;51.110;-4.158;2022-07-01T03:32:44;10.83;;;2.07;;
17648;SDS011;8943;51.110;-4.158;2022-07-01T03:35:14;6.77;;;1.50;;
17648;SDS011;8943;51.110;-4.158;2022-07-01T03:38:00;4.97;;;1.20;;
17648;SDS011;8943;51.110;-4.158;2022-07-01T03:40:29;8.17;;;1.83;;
17648;SDS011;8943;51.110;-4.158;2022-07-01T03:42:58;6.20;;;1.60;;
17648;SDS011;8943;51.110;-4.158;2022-07-01T03:45:26;11.00;;;2.23;;
17648;SDS011;8943;51.110;-4.158;2022-07-01T03:47:54;8.80;;;1.50;;
17648;SDS011;8943;51.110;-4.158;2022-07-01T03:50:23;6.77;;;1.63;;
17648;SDS011;8943;51.110;-4.158;2022-07-01T03:52:52;5.10;;;1.50;;
17648;SDS011;8943;51.110;-4.158;2022-07-01T03:55:35;5.57;;;1.17;;
17648;SDS011;8943;51.110;-4.158;2022-07-01T03:58:04;9.93;;;2.03;;
17648;SDS011;8943;51.110;-4.158;2022-07-01T04:00:33;5.10;;;1.43;;
17648;SDS011;8943;51.110;-4.158;2022-07-01T04:03:02;9.37;;;1.50;;
17648;SDS011;8943;51.110;-4.158;2022-07-01T04:05:31;7.93;;;1.60;;
17648;SDS011;8943;51.110;-4.158;2022-07-01T04:08:01;6.53;;;1.03;;
17648;SDS011;8943;51.110;-4.158;2022-07-01T04:10:30;5.47;;;1.27;;
17648;SDS011;8943;51.110;-4.158;2022-07-01T04:13:03;6.50;;;1.40;;
17648;SDS011;8943;51.110;-4.158;2022-07-01T04:15:51;6.97;;;1.37;;
17648;SDS011;8943;51.110;-4.158;2022-07-01T04:18:20;7.73;;;1.90;;
17648;SDS011;8943;51.110;-4.158;2022-07-01T04:20:48;7.60;;;1.47;;
17648;SDS011;8943;51.110;-4.158;2022-07-01T04:23:30;13.60;;;1.60;;
17648;SDS011;8943;51.110;-4.158;2022-07-01T04:26:00;7.47;;;1.97;;
17648;SDS011;8943;51.110;-4.158;2022-07-01T04:28:50;9.00;;;1.40;;
17648;SDS011;8943;51.110;-4.158;2022-07-01T04:31:18;5.97;;;1.67;;
17648;SDS011;8943;51.110;-4.158;2022-07-01T04:33:46;8.50;;;1.57;;
17648;SDS011;8943;51.110;-4.158;2022-07-01T04:36:16;4.33;;;1.10;;
17648;SDS011;8943;51.110;-4.158;2022-07-01T04:38:44;8.63;;;1.70;;
17648;SDS011;8943;51.110;-4.158;2022-07-01T04:41:12;10.07;;;2.03;;
17648;SDS011;8943;51.110;-4.158;2022-07-01T04:43:59;7.23;;;1.30;;
17648;SDS011;8943;51.110;-4.158;2022-07-01T04:46:27;8.83;;;1.93;;
17648;SDS011;8943;51.110;-4.158;2022-07-01T04:48:56;11.03;;;1.57;;
17648;SDS011;8943;51.110;-4.158;2022-07-01T04:51:24;10.07;;;1.80;;
17648;SDS011;8943;51.110;-4.158;2022-07-01T04:53:52;5.93;;;1.33;;
17648;SDS011;8943;51.110;-4.158;2022-07-01T04:56:20;8.47;;;1.40;;
17648;SDS011;8943;51.110;-4.158;2022-07-01T04:58:49;6.87;;;1.30;;
17648;SDS011;8943;51.110;-4.158;2022-07-01T05:01:18;7.70;;;1.07;;
17648;SDS011;8943;51.110;-4.158;2022-07-01T05:03:46;5.33;;;1.20;;
17648;SDS011;8943;51.110;-4.158;2022-07-01T05:06:15;12.90;;;1.20;;
17648;SDS011;8943;51.110;-4.158;2022-07-01T05:08:43;4.47;;;1.23;;
17648;SDS011;8943;51.110;-4.158;2022-07-01T05:11:11;4.70;;;1.30;;
17648;SDS011;8943;51.110;-4.158;2022-07-01T05:13:40;4.27;;;1.13;;
17648;SDS011;8943;51.110;-4.158;2022-07-01T05:16:08;8.77;;;1.63;;
17648;SDS011;8943;51.110;-4.158;2022-07-01T05:18:38;9.80;;;1.57;;
17648;SDS011;8943;51.110;-4.158;2022-07-01T05:21:24;9.03;;;1.60;;
17648;SDS011;8943;51.110;-4.158;2022-07-01T05:24:09;3.93;;;1.20;;
17648;SDS011;8943;51.110;-4.158;2022-07-01T05:26:38;10.43;;;1.70;;
17648;SDS011;8943;51.110;-4.158;2022-07-01T05:29:06;3.70;;;1.23;;
17648;SDS011;8943;51.110;-4.158;2022-07-01T05:31:34;6.93;;;1.50;;
17648;SDS011;8943;51.110;-4.158;2022-07-01T05:34:04;7.20;;;1.20;;
17648;SDS011;8943;51.110;-4.158;2022-07-01T05:36:33;4.80;;;1.00;;
17648;SDS011;8943;51.110;-4.158;2022-07-01T05:39:02;7.57;;;1.87;;
17648;SDS011;8943;51.110;-4.158;2022-07-01T05:41:31;7.30;;;2.03;;
17648;SDS011;8943;51.110;-4.158;2022-07-01T05:43:59;4.17;;;1.23;;
17648;SDS011;8943;51.110;-4.158;2022-07-01T05:46:27;6.03;;;1.30;;
17648;SDS011;8943;51.110;-4.158;2022-07-01T05:48:56;5.10;;;1.33;;
17648;SDS011;8943;51.110;-4.158;2022-07-01T05:51:26;6.73;;;1.40;;
17648;SDS011;8943;51.110;-4.158;2022-07-01T05:53:54;8.33;;;1.73;;
17648;SDS011;8943;51.110;-4.158;2022-07-01T05:56:24;5.20;;;1.70;;
17648;SDS011;8943;51.110;-4.158;2022-07-01T05:58:52;5.67;;;1.20;;
17648;SDS011;8943;51.110;-4.158;2022-07-01T06:01:21;4.63;;;1.37;;
17648;SDS011;8943;51.110;-4.158;2022-07-01T06:03:49;5.63;;;1.50;;
17648;SDS011;8943;51.110;-4.158;2022-07-01T06:06:18;6.27;;;1.33;;
17648;SDS011;8943;51.110;-4.158;2022-07-01T06:08:47;6.27;;;0.90;;
17648;SDS011;8943;51.110;-4.158;2022-07-01T06:11:15;3.23;;;1.10;;
17648;SDS011;8943;51.110;-4.158;2022-07-01T06:13:43;8.67;;;1.30;;
17648;SDS011;8943;51.110;-4.158;2022-07-01T06:16:11;5.33;;;1.17;;
17648;SDS011;8943;51.110;-4.158;2022-07-01T06:18:40;7.30;;;1.87;;
17648;SDS011;8943;51.110;-4.158;2022-07-01T06:21:08;7.53;;;1.17;;
17648;SDS011;8943;51.110;-4.158;2022-07-01T06:23:36;4.70;;;1.53;;
17648;SDS011;8943;51.110;-4.158;2022-07-01T06:26:06;1.57;;;0.90;;
17648;SDS011;8943;51.110;-4.158;2022-07-01T06:28:34;3.80;;;1.17;;
17648;SDS011;8943;51.110;-4.158;2022-07-01T06:31:03;6.73;;;1.07;;
17648;SDS011;8943;51.110;-4.158;2022-07-01T06:33:31;5.50;;;1.10;;
17648;SDS011;8943;51.110;-4.158;2022-07-01T06:35:59;3.97;;;1.03;;
17648;SDS011;8943;51.110;-4.158;2022-07-01T06:38:28;4.30;;;1.10;;
17648;SDS011;8943;51.110;-4.158;2022-07-01T06:40:56;3.20;;;0.80;;
17648;SDS011;8943;51.110;-4.158;2022-07-01T06:43:43;4.07;;;1.17;;
17648;SDS011;8943;51.110;-4.158;2022-07-01T06:46:11;4.00;;;1.20;;
17648;SDS011;8943;51.110;-4.158;2022-07-01T06:48:40;3.80;;;1.30;;
17648;SDS011;8943;51.110;-4.158;2022-07-01T06:51:08;5.20;;;1.93;;
17648;SDS011;8943;51.110;-4.158;2022-07-01T06:53:36;5.93;;;0.80;;
17648;SDS011;8943;51.110;-4.158;2022-07-01T06:56:05;7.07;;;1.17;;
17648;SDS011;8943;51.110;-4.158;2022-07-01T06:58:34;3.37;;;0.90;;
17648;SDS011;8943;51.110;-4.158;2022-07-01T07:01:03;5.50;;;1.00;;
17648;SDS011;8943;51.110;-4.158;2022-07-01T07:03:32;2.83;;;0.97;;
17648;SDS011;8943;51.110;-4.158;2022-07-01T07:06:00;4.80;;;0.90;;
17648;SDS011;8943;51.110;-4.158;2022-07-01T07:08:30;5.13;;;0.93;;
17648;SDS011;8943;51.110;-4.158;2022-07-01T07:10:59;3.53;;;1.23;;
17648;SDS011;8943;51.110;-4.158;2022-07-01T07:13:29;2.07;;;0.70;;
17648;SDS011;8943;51.110;-4.158;2022-07-01T07:15:57;4.73;;;1.07;;
17648;SDS011;8943;51.110;-4.158;2022-07-01T07:18:27;5.77;;;1.50;;
17648;SDS011;8943;51.110;-4.158;2022-07-01T07:20:55;2.77;;;0.93;;
17648;SDS011;8943;51.110;-4.158;2022-07-01T07:23:25;4.00;;;1.13;;
17648;SDS011;8943;51.110;-4.158;2022-07-01T07:25:54;2.77;;;0.70;;
17648;SDS011;8943;51.110;-4.158;2022-07-01T07:28:23;4.37;;;1.07;;
17648;SDS011;8943;51.110;-4.158;2022-07-01T07:30:51;3.30;;;1.00;;
17648;SDS011;8943;51.110;-4.158;2022-07-01T07:33:19;5.37;;;0.90;;
17648;SDS011;8943;51.110;-4.158;2022-07-01T07:35:49;5.77;;;0.90;;
17648;SDS011;8943;51.110;-4.158;2022-07-01T07:38:17;5.27;;;1.20;;
17648;SDS011;8943;51.110;-4.158;2022-07-01T07:40:45;5.47;;;1.20;;
17648;SDS011;8943;51.110;-4.158;2022-07-01T07:43:13;2.50;;;0.90;;
17648;SDS011;8943;51.110;-4.158;2022-07-01T07:45:41;2.30;;;0.53;;
17648;SDS011;8943;51.110;-4.158;2022-07-01T07:48:10;2.77;;;0.77;;
17648;SDS011;8943;51.110;-4.158;2022-07-01T07:50:38;3.77;;;0.90;;
17648;SDS011;8943;51.110;-4.158;2022-07-01T07:53:08;4.47;;;0.73;;
17648;SDS011;8943;51.110;-4.158;2022-07-01T07:55:38;3.67;;;0.87;;
17648;SDS011;8943;51.110;-4.158;2022-07-01T07:58:06;8.03;;;1.50;;
17648;SDS011;8943;51.110;-4.158;2022-07-01T08:00:35;3.60;;;0.73;;
17648;SDS011;8943;51.110;-4.158;2022-07-01T08:03:06;9.73;;;0.70;;
17648;SDS011;8943;51.110;-4.158;2022-07-01T08:05:34;5.37;;;1.07;;
17648;SDS011;8943;51.110;-4.158;2022-07-01T08:08:02;3.30;;;1.00;;
17648;SDS011;8943;51.110;-4.158;2022-07-01T08:10:33;4.23;;;0.70;;
17648;SDS011;8943;51.110;-4.158;2022-07-01T08:13:01;4.00;;;0.90;;
17648;SDS011;8943;51.110;-4.158;2022-07-01T08:15:31;4.13;;;1.10;;
17648;SDS011;8943;51.110;-4.158;2022-07-01T08:17:59;3.83;;;0.47;;
17648;SDS011;8943;51.110;-4.158;2022-07-01T08:20:28;4.30;;;0.60;;
17648;SDS011;8943;51.110;-4.158;2022-07-01T08:22:56;3.70;;;0.77;;
17648;SDS011;8943;51.110;-4.158;2022-07-01T08:25:24;2.97;;;0.80;;
17648;SDS011;8943;51.110;-4.158;2022-07-01T08:28:01;2.87;;;0.80;;
17648;SDS011;8943;51.110;-4.158;2022-07-01T08:30:30;4.37;;;0.83;;
17648;SDS011;8943;51.110;-4.158;2022-07-01T08:32:58;3.37;;;0.77;;
17648;SDS011;8943;51.110;-4.158;2022-07-01T08:35:26;3.37;;;0.60;;
17648;SDS011;8943;51.110;-4.158;2022-07-01T08:37:55;0.83;;;0.70;;
17648;SDS011;8943;51.110;-4.158;2022-07-01T08:40:24;2.53;;;0.70;;
17648;SDS011;8943;51.110;-4.158;2022-07-01T08:42:57;5.17;;;0.60;;
17648;SDS011;8943;51.110;-4.158;2022-07-01T08:45:28;4.40;;;0.80;;
17648;SDS011;8943;51.110;-4.158;2022-07-01T08:47:58;3.50;;;0.70;;
17648;SDS011;8943;51.110;-4.158;2022-07-01T08:50:28;2.03;;;0.60;;
17648;SDS011;8943;51.110;-4.158;2022-07-01T08:52:58;5.77;;;0.80;;
17648;SDS011;8943;51.110;-4.158;2022-07-01T08:55:26;2.57;;;0.60;;
17648;SDS011;8943;51.110;-4.158;2022-07-01T08:57:55;2.03;;;0.80;;
17648;SDS011;8943;51.110;-4.158;2022-07-01T09:00:30;4.33;;;0.73;;
17648;SDS011;8943;51.110;-4.158;2022-07-01T09:03:00;3.63;;;0.70;;
17648;SDS011;8943;51.110;-4.158;2022-07-01T09:05:30;2.97;;;0.50;;
17648;SDS011;8943;51.110;-4.158;2022-07-01T09:07:59;6.03;;;0.90;;
17648;SDS011;8943;51.110;-4.158;2022-07-01T09:10:29;4.70;;;1.03;;
17648;SDS011;8943;51.110;-4.158;2022-07-01T09:13:03;5.13;;;0.90;;
17648;SDS011;8943;51.110;-4.158;2022-07-01T09:15:34;5.53;;;1.17;;
17648;SDS011;8943;51.110;-4.158;2022-07-01T09:18:03;4.47;;;1.00;;
17648;SDS011;8943;51.110;-4.158;2022-07-01T09:20:33;4.10;;;0.63;;
17648;SDS011;8943;51.110;-4.158;2022-07-01T09:23:03;2.13;;;0.83;;
17648;SDS011;8943;51.110;-4.158;2022-07-01T09:25:33;1.80;;;0.50;;
17648;SDS011;8943;51.110;-4.158;2022-07-01T09:28:17;3.50;;;0.63;;
17648;SDS011;8943;51.110;-4.158;2022-07-01T09:30:48;1.37;;;0.63;;
17648;SDS011;8943;51.110;-4.158;2022-07-01T09:33:17;2.50;;;0.53;;
17648;SDS011;8943;51.110;-4.158;2022-07-01T09:35:47;1.80;;;0.50;;
17648;SDS011;8943;51.110;-4.158;2022-07-01T09:38:16;3.10;;;0.50;;
17648;SDS011;8943;51.110;-4.158;2022-07-01T09:40:58;1.67;;;0.57;;
17648;SDS011;8943;51.110;-4.158;2022-07-01T09:43:28;3.50;;;0.60;;
17648;SDS011;8943;51.110;-4.158;2022-07-01T09:45:59;2.53;;;0.80;;
17648;SDS011;8943;51.110;-4.158;2022-07-01T09:48:41;5.30;;;0.97;;
17648;SDS011;8943;51.110;-4.158;2022-07-01T09:51:11;2.33;;;0.83;;
17648;SDS011;8943;51.110;-4.158;2022-07-01T09:53:41;7.73;;;0.97;;
17648;SDS011;8943;51.110;-4.158;2022-07-01T09:56:09;4.37;;;1.40;;
17648;SDS011;8943;51.110;-4.158;2022-07-01T09:58:38;2.67;;;1.07;;
17648;SDS011;8943;51.110;-4.158;2022-07-01T10:01:12;2.57;;;0.73;;
17648;SDS011;8943;51.110;-4.158;2022-07-01T10:03:42;2.97;;;0.97;;
17648;SDS011;8943;51.110;-4.158;2022-07-01T10:06:15;4.77;;;1.00;;
17648;SDS011;8943;51.110;-4.158;2022-07-01T10:08:59;1.37;;;0.70;;
17648;SDS011;8943;51.110;-4.158;2022-07-01T10:11:46;2.40;;;0.67;;
17648;SDS011;8943;51.110;-4.158;2022-07-01T10:14:29;3.30;;;0.70;;
17648;SDS011;8943;51.110;-4.158;2022-07-01T10:16:59;3.40;;;0.90;;
17648;SDS011;8943;51.110;-4.158;2022-07-01T10:19:28;3.60;;;0.40;;
17648;SDS011;8943;51.110;-4.158;2022-07-01T10:22:00;1.20;;;0.70;;
17648;SDS011;8943;51.110;-4.158;2022-07-01T10:24:48;1.70;;;0.50;;
17648;SDS011;8943;51.110;-4.158;2022-07-01T10:27:19;11.53;;;1.83;;
17648;SDS011;8943;51.110;-4.158;2022-07-01T10:29:48;3.30;;;0.73;;
17648;SDS011;8943;51.110;-4.158;2022-07-01T10:32:27;9.10;;;1.70;;
17648;SDS011;8943;51.110;-4.158;2022-07-01T10:35:15;21.97;;;4.20;;
17648;SDS011;8943;51.110;-4.158;2022-07-01T10:40:39;3.43;;;1.10;;
17648;SDS011;8943;51.110;-4.158;2022-07-01T10:43:08;2.83;;;1.60;;
17648;SDS011;8943;51.110;-4.158;2022-07-01T10:45:54;5.13;;;0.97;;
17648;SDS011;8943;51.110;-4.158;2022-07-01T10:48:24;2.93;;;0.73;;
17648;SDS011;8943;51.110;-4.158;2022-07-01T10:50:53;2.63;;;0.53;;
17648;SDS011;8943;51.110;-4.158;2022-07-01T10:53:21;1.40;;;0.60;;
17648;SDS011;8943;51.110;-4.158;2022-07-01T10:55:50;1.40;;;0.53;;
17648;SDS011;8943;51.110;-4.158;2022-07-01T10:58:35;2.40;;;0.53;;
17648;SDS011;8943;51.110;-4.158;2022-07-01T11:01:04;2.97;;;0.70;;
17648;SDS011;8943;51.110;-4.158;2022-07-01T11:03:36;1.30;;;0.50;;
17648;SDS011;8943;51.110;-4.158;2022-07-01T11:06:07;1.03;;;0.30;;
17648;SDS011;8943;51.110;-4.158;2022-07-01T11:08:36;1.70;;;0.57;;
17648;SDS011;8943;51.110;-4.158;2022-07-01T11:11:08;2.97;;;0.60;;
17648;SDS011;8943;51.110;-4.158;2022-07-01T11:13:39;2.60;;;0.70;;
17648;SDS011;8943;51.110;-4.158;2022-07-01T11:16:07;2.90;;;0.83;;
17648;SDS011;8943;51.110;-4.158;2022-07-01T11:18:38;2.00;;;0.60;;
17648;SDS011;8943;51.110;-4.158;2022-07-01T11:21:08;1.63;;;0.40;;
17648;SDS011;8943;51.110;-4.158;2022-07-01T11:23:38;2.07;;;0.53;;
17648;SDS011;8943;51.110;-4.158;2022-07-01T11:26:19;4.57;;;0.60;;
17648;SDS011;8943;51.110;-4.158;2022-07-01T11:28:48;0.80;;;0.50;;
17648;SDS011;8943;51.110;-4.158;2022-07-01T11:31:26;2.17;;;0.43;;
17648;SDS011;8943;51.110;-4.158;2022-07-01T11:33:57;1.40;;;0.60;;
17648;SDS011;8943;51.110;-4.158;2022-07-01T11:36:25;3.10;;;0.60;;
17648;SDS011;8943;51.110;-4.158;2022-07-01T11:39:11;2.83;;;0.50;;
17648;SDS011;8943;51.110;-4.158;2022-07-01T11:41:52;4.13;;;0.60;;
17648;SDS011;8943;51.110;-4.158;2022-07-01T11:44:30;2.57;;;0.53;;
17648;SDS011;8943;51.110;-4.158;2022-07-01T11:47:00;0.90;;;0.30;;
17648;SDS011;8943;51.110;-4.158;2022-07-01T11:49:30;1.47;;;0.70;;
17648;SDS011;8943;51.110;-4.158;2022-07-01T11:52:00;1.10;;;0.60;;
17648;SDS011;8943;51.110;-4.158;2022-07-01T11:54:34;2.53;;;0.63;;
17648;SDS011;8943;51.110;-4.158;2022-07-01T11:57:10;2.43;;;0.70;;
17648;SDS011;8943;51.110;-4.158;2022-07-01T11:59:40;2.30;;;0.50;;
17648;SDS011;8943;51.110;-4.158;2022-07-01T12:02:10;2.80;;;0.73;;
17648;SDS011;8943;51.110;-4.158;2022-07-01T12:04:42;1.73;;;0.60;;
17648;SDS011;8943;51.110;-4.158;2022-07-01T12:07:11;2.67;;;0.30;;
17648;SDS011;8943;51.110;-4.158;2022-07-01T12:09:41;3.83;;;0.67;;
17648;SDS011;8943;51.110;-4.158;2022-07-01T12:12:14;1.60;;;0.60;;
17648;SDS011;8943;51.110;-4.158;2022-07-01T12:14:49;2.87;;;0.60;;
17648;SDS011;8943;51.110;-4.158;2022-07-01T12:17:19;2.70;;;0.53;;
17648;SDS011;8943;51.110;-4.158;2022-07-01T12:19:50;1.43;;;0.60;;
17648;SDS011;8943;51.110;-4.158;2022-07-01T12:22:20;3.07;;;0.60;;
17648;SDS011;8943;51.110;-4.158;2022-07-01T12:24:52;1.87;;;0.60;;
17648;SDS011;8943;51.110;-4.158;2022-07-01T12:27:32;2.10;;;0.70;;
17648;SDS011;8943;51.110;-4.158;2022-07-01T12:30:02;1.67;;;0.50;;
17648;SDS011;8943;51.110;-4.158;2022-07-01T12:32:30;4.07;;;0.63;;
17648;SDS011;8943;51.110;-4.158;2022-07-01T12:35:00;2.10;;;0.90;;
17648;SDS011;8943;51.110;-4.158;2022-07-01T12:37:31;2.30;;;0.60;;
17648;SDS011;8943;51.110;-4.158;2022-07-01T12:40:02;1.33;;;0.67;;
17648;SDS011;8943;51.110;-4.158;2022-07-01T12:42:32;2.27;;;0.87;;
17648;SDS011;8943;51.110;-4.158;2022-07-01T12:45:05;3.67;;;0.80;;
17648;SDS011;8943;51.110;-4.158;2022-07-01T12:47:35;2.50;;;0.60;;
17648;SDS011;8943;51.110;-4.158;2022-07-01T12:50:10;3.17;;;0.70;;
17648;SDS011;8943;51.110;-4.158;2022-07-01T12:52:40;2.47;;;0.60;;
17648;SDS011;8943;51.110;-4.158;2022-07-01T12:55:14;3.13;;;0.70;;
17648;SDS011;8943;51.110;-4.158;2022-07-01T12:57:43;1.73;;;0.50;;
17648;SDS011;8943;51.110;-4.158;2022-07-01T13:00:13;3.07;;;0.60;;
17648;SDS011;8943;51.110;-4.158;2022-07-01T13:02:43;1.27;;;0.60;;
17648;SDS011;8943;51.110;-4.158;2022-07-01T13:05:13;4.87;;;0.77;;
17648;SDS011;8943;51.110;-4.158;2022-07-01T13:07:41;1.70;;;0.30;;
17648;SDS011;8943;51.110;-4.158;2022-07-01T13:10:11;2.43;;;0.60;;
17648;SDS011;8943;51.110;-4.158;2022-07-01T13:12:40;0.90;;;0.40;;
17648;SDS011;8943;51.110;-4.158;2022-07-01T13:15:09;3.07;;;0.40;;
17648;SDS011;8943;51.110;-4.158;2022-07-01T13:17:37;1.13;;;0.40;;
17648;SDS011;8943;51.110;-4.158;2022-07-01T13:20:06;1.17;;;0.57;;
17648;SDS011;8943;51.110;-4.158;2022-07-01T13:22:37;2.67;;;0.67;;
17648;SDS011;8943;51.110;-4.158;2022-07-01T13:25:05;1.20;;;0.60;;
17648;SDS011;8943;51.110;-4.158;2022-07-01T13:27:35;2.37;;;0.43;;
17648;SDS011;8943;51.110;-4.158;2022-07-01T13:30:04;4.40;;;0.60;;
17648;SDS011;8943;51.110;-4.158;2022-07-01T13:32:34;3.80;;;0.40;;
17648;SDS011;8943;51.110;-4.158;2022-07-01T13:35:06;1.90;;;0.70;;
17648;SDS011;8943;51.110;-4.158;2022-07-01T13:37:37;2.63;;;0.60;;
17648;SDS011;8943;51.110;-4.158;2022-07-01T13:40:06;2.83;;;0.70;;
17648;SDS011;8943;51.110;-4.158;2022-07-01T13:42:35;1.10;;;0.50;;
17648;SDS011;8943;51.110;-4.158;2022-07-01T13:45:03;2.03;;;0.87;;
17648;SDS011;8943;51.110;-4.158;2022-07-01T13:47:33;2.20;;;0.97;;
17648;SDS011;8943;51.110;-4.158;2022-07-01T13:50:01;2.08;;;0.65;;
17648;SDS011;8943;51.110;-4.158;2022-07-01T13:52:29;2.35;;;0.73;;
17648;SDS011;8943;51.110;-4.158;2022-07-01T13:54:59;1.83;;;0.75;;
17648;SDS011;8943;51.110;-4.158;2022-07-01T13:57:27;2.13;;;0.47;;
17648;SDS011;8943;51.110;-4.158;2022-07-01T13:59:55;1.25;;;0.40;;
17648;SDS011;8943;51.110;-4.158;2022-07-01T14:02:24;1.98;;;0.60;;
17648;SDS011;8943;51.110;-4.158;2022-07-01T14:04:52;1.45;;;0.60;;
17648;SDS011;8943;51.110;-4.158;2022-07-01T14:07:20;2.60;;;0.60;;
17648;SDS011;8943;51.110;-4.158;2022-07-01T14:09:49;0.93;;;0.57;;
17648;SDS011;8943;51.110;-4.158;2022-07-01T14:12:18;1.45;;;0.40;;
17648;SDS011;8943;51.110;-4.158;2022-07-01T14:14:53;1.88;;;0.70;;
17648;SDS011;8943;51.110;-4.158;2022-07-01T14:17:22;2.42;;;0.77;;
17648;SDS011;8943;51.110;-4.158;2022-07-01T14:19:51;1.80;;;0.95;;
17648;SDS011;8943;51.110;-4.158;2022-07-01T14:22:19;1.15;;;0.50;;
17648;SDS011;8943;51.110;-4.158;2022-07-01T14:24:47;2.25;;;0.73;;
17648;SDS011;8943;51.110;-4.158;2022-07-01T14:27:16;1.80;;;0.50;;
17648;SDS011;8943;51.110;-4.158;2022-07-01T14:29:45;3.40;;;0.70;;
17648;SDS011;8943;51.110;-4.158;2022-07-01T14:32:21;1.38;;;0.47;;
17648;SDS011;8943;51.110;-4.158;2022-07-01T14:34:52;2.15;;;0.57;;
17648;SDS011;8943;51.110;-4.158;2022-07-01T14:37:21;2.80;;;0.77;;
17648;SDS011;8943;51.110;-4.158;2022-07-01T14:39:49;5.47;;;0.95;;
17648;SDS011;8943;51.110;-4.158;2022-07-01T14:42:23;1.48;;;0.60;;
17648;SDS011;8943;51.110;-4.158;2022-07-01T14:44:53;3.22;;;0.60;;
17648;SDS011;8943;51.110;-4.158;2022-07-01T14:47:22;2.88;;;0.90;;
17648;SDS011;8943;51.110;-4.158;2022-07-01T14:49:50;3.08;;;0.65;;
17648;SDS011;8943;51.110;-4.158;2022-07-01T14:52:20;1.17;;;0.38;;
17648;SDS011;8943;51.110;-4.158;2022-07-01T14:54:50;1.90;;;0.50;;
17648;SDS011;8943;51.110;-4.158;2022-07-01T14:57:19;3.95;;;0.88;;
17648;SDS011;8943;51.110;-4.158;2022-07-01T14:59:47;3.20;;;0.98;;
17648;SDS011;8943;51.110;-4.158;2022-07-01T15:02:17;1.77;;;0.70;;
17648;SDS011;8943;51.110;-4.158;2022-07-01T15:04:47;1.20;;;0.40;;
17648;SDS011;8943;51.110;-4.158;2022-07-01T15:07:15;6.25;;;0.93;;